Time;durP1;ratioP1;P1;durP2;ratioP2;P2;SDS_P1;SDS_P2;PMS_P1;PMS_P2;Temp;Humidity;BMP_temperature;BMP_pressure;BME280_temperature;BME280_humidity;BME280_pressure;Samples;Min_cycle;Max_cycle;Signal;HPM_P1;HPM_P2
2023/01/19 00:02:19;;;;;;;20.15;8.90;;;;;;;;;;6222055;23;20307;-73
2023/01/19 00:04:45;;;;;;;13.68;7.68;;;;;;;;;;6196268;23;20129;-75
2023/01/19 00:07:11;;;;;;;12.82;7.15;;;;;;;;;;6220761;23;20121;-75
2023/01/19 00:09:37;;;;;;;15.07;9.38;;;;;;;;;;6219592;23;20795;-75
2023/01/19 00:12:04;;;;;;;13.35;8.98;;;;;;;;;;6170793;23;20016;-74
2023/01/19 00:14:30;;;;;;;13.20;8.90;;;;;;;;;;6198004;23;20853;-75
2023/01/19 00:16:57;;;;;;;15.95;9.02;;;;;;;;;;6196674;23;20023;-75
2023/01/19 00:19:23;;;;;;;10.02;6.97;;;;;;;;;;6223376;23;20020;-75
2023/01/19 00:21:49;;;;;;;14.93;10.02;;;;;;;;;;6223591;23;20158;-75
2023/01/19 00:24:15;;;;;;;13.00;8.05;;;;;;;;;;6171326;23;20035;-74
2023/01/19 00:26:41;;;;;;;15.45;7.78;;;;;;;;;;6199011;23;20020;-74
2023/01/19 00:29:11;;;;;;;12.05;7.63;;;;;;;;;;6224454;22;20016;-74
2023/01/19 00:31:37;;;;;;;10.07;6.95;;;;;;;;;;6177772;23;20745;-74
2023/01/19 00:34:04;;;;;;;6.60;4.80;;;;;;;;;;6213714;23;20016;-74
2023/01/19 00:36:32;;;;;;;11.07;7.38;;;;;;;;;;6185005;23;20014;-74
2023/01/19 00:38:58;;;;;;;14.05;7.20;;;;;;;;;;6241692;23;20000;-74
2023/01/19 00:44:10;;;;;;;10.00;5.68;;;;;;;;;;6243889;22;20035;-74
2023/01/19 00:46:36;;;;;;;7.35;5.18;;;;;;;;;;6223002;23;20450;-75
2023/01/19 00:49:02;;;;;;;17.52;8.63;;;;;;;;;;6172661;23;20346;-74
2023/01/19 00:51:28;;;;;;;11.70;5.95;;;;;;;;;;6198663;23;20043;-74
2023/01/19 00:53:54;;;;;;;7.35;5.47;;;;;;;;;;6223470;23;20751;-74
2023/01/19 00:56:20;;;;;;;13.02;6.82;;;;;;;;;;6223241;23;20024;-74
2023/01/19 00:58:46;;;;;;;8.32;6.10;;;;;;;;;;6222992;22;20016;-74
2023/01/19 01:01:12;;;;;;;11.70;6.50;;;;;;;;;;6222659;23;20027;-84
2023/01/19 01:03:38;;;;;;;9.27;6.55;;;;;;;;;;6233920;23;20016;-82
2023/01/19 01:06:07;;;;;;;11.57;6.45;;;;;;;;;;6181754;23;20024;-82
2023/01/19 01:08:33;;;;;;;9.38;6.50;;;;;;;;;;6200724;23;20041;-83
2023/01/19 01:10:59;;;;;;;10.57;6.00;;;;;;;;;;6176132;23;20366;-83
2023/01/19 01:13:25;;;;;;;11.68;7.25;;;;;;;;;;6182384;23;20008;-84
2023/01/19 01:15:52;;;;;;;11.23;5.63;;;;;;;;;;6231454;23;20089;-83
2023/01/19 01:18:19;;;;;;;11.27;6.18;;;;;;;;;;6206556;23;20473;-84
2023/01/19 01:20:45;;;;;;;12.05;6.72;;;;;;;;;;6234927;23;20024;-84
2023/01/19 01:23:11;;;;;;;9.27;6.78;;;;;;;;;;6209466;23;20023;-83
2023/01/19 01:25:37;;;;;;;7.07;5.38;;;;;;;;;;6186798;23;20038;-84
2023/01/19 01:28:07;;;;;;;11.73;6.07;;;;;;;;;;6191286;22;20051;-85
2023/01/19 01:30:34;;;;;;;9.07;5.45;;;;;;;;;;6209394;23;20442;-84
2023/01/19 01:33:00;;;;;;;14.77;6.03;;;;;;;;;;6184817;23;20027;-84
2023/01/19 01:35:26;;;;;;;8.07;3.75;;;;;;;;;;6250612;23;20008;-83
2023/01/19 01:37:52;;;;;;;12.43;6.07;;;;;;;;;;6249715;23;20020;-84
2023/01/19 01:40:18;;;;;;;9.68;5.80;;;;;;;;;;6206847;23;20020;-84
2023/01/19 01:42:45;;;;;;;9.68;5.03;;;;;;;;;;6182776;23;20599;-84
2023/01/19 01:45:17;;;;;;;9.63;4.57;;;;;;;;;;6183558;23;20013;-83
2023/01/19 01:47:45;;;;;;;9.93;4.47;;;;;;;;;;6184149;23;20740;-84
2023/01/19 01:50:14;;;;;;;4.80;3.33;;;;;;;;;;6212938;23;20331;-84
2023/01/19 01:52:44;;;;;;;8.73;3.70;;;;;;;;;;6242547;23;20043;-84
2023/01/19 01:55:11;;;;;;;9.55;3.25;;;;;;;;;;6245015;23;20024;-82
2023/01/19 01:57:38;;;;;;;10.30;3.20;;;;;;;;;;6242148;23;20044;-83
2023/01/19 02:00:05;;;;;;;5.95;1.92;;;;;;;;;;6236404;22;20019;-82
2023/01/19 02:02:50;;;;;;;7.10;2.78;;;;;;;;;;6235683;23;20020;-83
2023/01/19 02:05:19;;;;;;;6.78;1.77;;;;;;;;;;6237045;23;20016;-83
2023/01/19 02:13:19;;;;;;;3.10;1.70;;;;;;;;;;6232702;23;20441;-75
2023/01/19 02:15:45;;;;;;;6.22;1.92;;;;;;;;;;6233830;23;20020;-75
2023/01/19 02:18:11;;;;;;;4.20;2.03;;;;;;;;;;6232288;23;20024;-75
2023/01/19 02:20:39;;;;;;;3.05;2.70;;;;;;;;;;6181762;23;20016;-74
2023/01/19 02:23:10;;;;;;;5.53;3.22;;;;;;;;;;6240727;23;20024;-75
2023/01/19 02:25:37;;;;;;;6.60;4.25;;;;;;;;;;6186330;23;20091;-74
2023/01/19 02:28:04;;;;;;;7.82;4.22;;;;;;;;;;6217199;22;20032;-74
2023/01/19 02:30:31;;;;;;;7.55;5.05;;;;;;;;;;6249115;23;20023;-74
2023/01/19 02:32:57;;;;;;;7.85;5.55;;;;;;;;;;6220392;23;20020;-75
2023/01/19 02:35:24;;;;;;;8.60;5.80;;;;;;;;;;6222382;23;20021;-75
2023/01/19 02:37:50;;;;;;;8.57;5.38;;;;;;;;;;6198547;23;20033;-74
2023/01/19 02:40:18;;;;;;;6.90;4.47;;;;;;;;;;6222587;23;20074;-74
2023/01/19 02:42:47;;;;;;;6.00;4.70;;;;;;;;;;6173633;23;20027;-75
2023/01/19 02:45:15;;;;;;;11.20;5.97;;;;;;;;;;6222395;23;20782;-76
2023/01/19 02:47:48;;;;;;;10.82;6.82;;;;;;;;;;6223739;23;20016;-76
2023/01/19 02:50:32;;;;;;;9.93;6.73;;;;;;;;;;6152873;23;20051;-75
2023/01/19 02:53:04;;;;;;;12.23;6.13;;;;;;;;;;6219149;23;20025;-75
2023/01/19 02:55:31;;;;;;;12.60;6.10;;;;;;;;;;6198194;23;20020;-75
2023/01/19 02:57:57;;;;;;;9.98;4.63;;;;;;;;;;6223728;22;20016;-75
2023/01/19 03:00:23;;;;;;;15.45;7.57;;;;;;;;;;6173164;23;20016;-75
2023/01/19 03:02:59;;;;;;;12.90;7.30;;;;;;;;;;6197195;23;20020;-75
2023/01/19 03:05:40;;;;;;;8.20;5.35;;;;;;;;;;6221790;23;20020;-75
2023/01/19 03:08:13;;;;;;;10.20;6.95;;;;;;;;;;6223122;23;20024;-75
2023/01/19 03:10:54;;;;;;;10.52;6.22;;;;;;;;;;6191974;23;20076;-75
2023/01/19 03:13:30;;;;;;;8.07;5.25;;;;;;;;;;6213435;23;20020;-74
2023/01/19 03:16:04;;;;;;;11.20;5.65;;;;;;;;;;6191544;23;20125;-75
2023/01/19 03:18:32;;;;;;;12.25;6.35;;;;;;;;;;6196952;23;20034;-75
2023/01/19 03:20:59;;;;;;;11.48;6.00;;;;;;;;;;6195569;23;20518;-75
2023/01/19 03:23:26;;;;;;;12.00;6.93;;;;;;;;;;6222763;23;20016;-75
2023/01/19 03:25:54;;;;;;;10.27;5.80;;;;;;;;;;6222167;23;20103;-75
2023/01/19 03:28:22;;;;;;;9.35;5.78;;;;;;;;;;6222252;22;20070;-75
2023/01/19 03:30:52;;;;;;;9.10;6.28;;;;;;;;;;6222666;23;20020;-75
2023/01/19 03:33:24;;;;;;;8.90;5.05;;;;;;;;;;6196622;23;20027;-75
2023/01/19 03:35:53;;;;;;;8.43;5.45;;;;;;;;;;6192206;23;20012;-75
2023/01/19 03:38:22;;;;;;;10.15;5.30;;;;;;;;;;6223850;23;20020;-75
2023/01/19 03:40:48;;;;;;;9.95;5.57;;;;;;;;;;6221276;23;20016;-74
2023/01/19 03:43:15;;;;;;;10.23;5.32;;;;;;;;;;6154441;23;20049;-74
2023/01/19 03:45:45;;;;;;;9.75;5.85;;;;;;;;;;6219115;23;20038;-74
2023/01/19 03:48:12;;;;;;;8.05;4.70;;;;;;;;;;6171370;23;20824;-74
2023/01/19 03:50:38;;;;;;;9.05;4.85;;;;;;;;;;6223618;23;20088;-75
2023/01/19 03:53:08;;;;;;;8.90;5.35;;;;;;;;;;6222754;23;20470;-75
2023/01/19 03:55:36;;;;;;;9.60;5.07;;;;;;;;;;6222699;23;20027;-75
2023/01/19 03:58:02;;;;;;;9.73;5.60;;;;;;;;;;6222534;22;20043;-76
2023/01/19 04:00:28;;;;;;;9.48;5.55;;;;;;;;;;6196769;23;20104;-75
2023/01/19 04:02:54;;;;;;;10.30;5.00;;;;;;;;;;6170607;23;20094;-74
2023/01/19 04:05:21;;;;;;;12.93;5.95;;;;;;;;;;6198062;23;20020;-74
2023/01/19 04:07:50;;;;;;;10.27;5.97;;;;;;;;;;6198356;23;20016;-74
2023/01/19 04:10:20;;;;;;;13.07;6.32;;;;;;;;;;6227209;23;20061;-74
2023/01/19 04:12:46;;;;;;;12.25;6.30;;;;;;;;;;6234861;23;20012;-74
2023/01/19 04:15:13;;;;;;;15.55;6.43;;;;;;;;;;6241337;23;20062;-75
2023/01/19 04:17:39;;;;;;;10.43;5.68;;;;;;;;;;6239713;23;20434;-75
2023/01/19 04:20:06;;;;;;;12.20;6.60;;;;;;;;;;6227091;23;20016;-75
2023/01/19 04:22:32;;;;;;;11.00;6.35;;;;;;;;;;6253968;22;20088;-75
2023/01/19 04:24:58;;;;;;;11.80;6.50;;;;;;;;;;6245544;23;20020;-75
2023/01/19 04:27:24;;;;;;;16.67;7.13;;;;;;;;;;6201161;23;20711;-75
2023/01/19 04:29:51;;;;;;;17.40;7.55;;;;;;;;;;6193261;23;20027;-75
2023/01/19 04:32:17;;;;;;;12.10;6.32;;;;;;;;;;6223860;23;20050;-75
2023/01/19 04:34:43;;;;;;;15.63;7.57;;;;;;;;;;6224772;23;20066;-75
2023/01/19 04:37:09;;;;;;;16.55;7.50;;;;;;;;;;6198794;23;20020;-75
2023/01/19 04:39:36;;;;;;;17.35;7.80;;;;;;;;;;6196821;23;20019;-75
2023/01/19 04:42:02;;;;;;;15.55;7.88;;;;;;;;;;6222489;23;20055;-75
2023/01/19 04:44:28;;;;;;;23.02;8.15;;;;;;;;;;6224898;23;20024;-75
2023/01/19 04:46:54;;;;;;;17.75;8.38;;;;;;;;;;6222050;23;20405;-75
2023/01/19 04:49:20;;;;;;;19.98;8.95;;;;;;;;;;6197601;23;20083;-75
2023/01/19 04:51:46;;;;;;;21.67;8.85;;;;;;;;;;6171422;23;20099;-75
2023/01/19 04:54:12;;;;;;;22.30;8.43;;;;;;;;;;6220502;23;20115;-74
2023/01/19 04:56:39;;;;;;;22.70;9.00;;;;;;;;;;6221686;23;20048;-75
2023/01/19 05:11:07;;;;;;;31.27;8.10;;;;;;;;;;6163982;22;20036;31
2023/01/19 05:16:27;;;;;;;28.40;9.55;;;;;;;;;;6191493;22;20021;-81
2023/01/19 05:18:53;;;;;;;23.50;8.35;;;;;;;;;;6199168;23;20374;-82
2023/01/19 05:21:19;;;;;;;26.92;8.70;;;;;;;;;;6199625;23;20016;-81
2023/01/19 05:23:45;;;;;;;35.00;9.38;;;;;;;;;;6228997;23;20074;-81
2023/01/19 05:26:12;;;;;;;28.88;8.82;;;;;;;;;;6203071;23;20027;-81
2023/01/19 05:28:38;;;;;;;31.65;9.18;;;;;;;;;;6207775;23;20016;-81
2023/01/19 05:31:04;;;;;;;28.77;9.32;;;;;;;;;;6154596;23;20362;-81
2023/01/19 05:33:30;;;;;;;33.55;9.90;;;;;;;;;;6204776;23;20472;-81
2023/01/19 05:35:56;;;;;;;24.42;8.50;;;;;;;;;;6203855;23;20039;-82
2023/01/19 05:38:22;;;;;;;30.98;10.13;;;;;;;;;;6155208;23;20016;-81
2023/01/19 05:40:48;;;;;;;28.45;9.77;;;;;;;;;;6153723;23;20031;-81
2023/01/19 05:43:15;;;;;;;33.03;10.07;;;;;;;;;;6207311;23;20461;-81
2023/01/19 05:45:41;;;;;;;32.75;9.60;;;;;;;;;;6203219;23;20026;-81
2023/01/19 05:48:08;;;;;;;27.63;9.43;;;;;;;;;;6207210;23;20016;-81
2023/01/19 05:50:34;;;;;;;31.42;9.88;;;;;;;;;;6204921;23;20016;-80
2023/01/19 05:53:01;;;;;;;22.73;8.60;;;;;;;;;;6202557;23;20024;-80
2023/01/19 05:55:28;;;;;;;24.50;9.02;;;;;;;;;;6198584;23;20016;-79
2023/01/19 05:57:54;;;;;;;26.08;8.93;;;;;;;;;;6198054;23;20058;-79
2023/01/19 06:00:21;;;;;;;28.23;8.75;;;;;;;;;;6198741;23;20491;-79
2023/01/19 06:02:48;;;;;;;22.73;7.45;;;;;;;;;;6177446;23;20026;-79
2023/01/19 06:05:14;;;;;;;23.23;8.48;;;;;;;;;;6202552;23;20031;-79
2023/01/19 06:07:40;;;;;;;21.75;7.13;;;;;;;;;;6201989;23;20524;-79
2023/01/19 06:10:07;;;;;;;19.70;6.18;;;;;;;;;;6202802;23;20023;-78
2023/01/19 06:12:33;;;;;;;20.77;7.20;;;;;;;;;;6201414;23;20016;-78
2023/01/19 06:14:59;;;;;;;20.98;6.80;;;;;;;;;;6176019;23;20024;-79
2023/01/19 06:17:25;;;;;;;20.90;6.25;;;;;;;;;;6200307;23;20441;-79
2023/01/19 06:19:52;;;;;;;14.63;5.88;;;;;;;;;;6201523;23;20023;-79
2023/01/19 06:22:18;;;;;;;19.75;6.65;;;;;;;;;;6201654;23;20281;-79
2023/01/19 06:24:44;;;;;;;16.63;5.90;;;;;;;;;;6200141;23;20024;-79
2023/01/19 06:27:10;;;;;;;20.52;5.78;;;;;;;;;;6178039;23;20024;-79
2023/01/19 06:29:36;;;;;;;19.98;5.80;;;;;;;;;;6200594;23;20434;-79
2023/01/19 06:32:02;;;;;;;26.58;7.60;;;;;;;;;;6202299;23;20354;-80
2023/01/19 06:34:28;;;;;;;16.95;4.97;;;;;;;;;;6201232;23;20111;-80
2023/01/19 06:36:57;;;;;;;16.70;4.38;;;;;;;;;;6199588;23;20016;-80
2023/01/19 06:39:23;;;;;;;11.88;3.53;;;;;;;;;;6200435;23;20020;-80
2023/01/19 06:41:49;;;;;;;18.13;3.78;;;;;;;;;;6226702;23;20024;-80
2023/01/19 06:44:16;;;;;;;10.20;2.65;;;;;;;;;;6200760;23;20031;-80
2023/01/19 06:46:42;;;;;;;9.35;3.08;;;;;;;;;;6201661;23;20024;-80
2023/01/19 06:49:08;;;;;;;14.40;2.95;;;;;;;;;;6201575;23;20138;-80
2023/01/19 06:51:34;;;;;;;13.20;2.65;;;;;;;;;;6173661;23;20020;-80
2023/01/19 06:54:00;;;;;;;18.23;3.05;;;;;;;;;;6201130;23;20044;-80
2023/01/19 06:56:26;;;;;;;14.15;3.53;;;;;;;;;;6177529;23;20012;-79
2023/01/19 06:58:54;;;;;;;17.38;4.13;;;;;;;;;;6205935;23;20031;-79
2023/01/19 07:01:20;;;;;;;24.33;6.20;;;;;;;;;;6203783;23;20526;-80
2023/01/19 07:03:46;;;;;;;12.30;5.13;;;;;;;;;;6180221;23;20066;-80
2023/01/19 07:06:12;;;;;;;23.00;5.35;;;;;;;;;;6203521;23;20425;-79
2023/01/19 07:08:38;;;;;;;14.93;2.67;;;;;;;;;;6204023;23;20456;-79
2023/01/19 07:11:09;;;;;;;9.05;2.83;;;;;;;;;;6179583;23;20027;-78
2023/01/19 07:13:36;;;;;;;9.02;2.45;;;;;;;;;;6201492;23;20390;-79
2023/01/19 07:16:06;;;;;;;22.52;2.40;;;;;;;;;;6178242;23;20194;-79
2023/01/19 07:18:32;;;;;;;10.00;1.40;;;;;;;;;;6202131;23;20039;-79
2023/01/19 07:20:58;;;;;;;8.45;1.35;;;;;;;;;;6202288;23;20024;-79
2023/01/19 07:23:25;;;;;;;11.23;1.30;;;;;;;;;;6177832;23;20016;-78
2023/01/19 07:25:51;;;;;;;9.57;1.55;;;;;;;;;;6202344;23;20016;-79
2023/01/19 07:28:17;;;;;;;6.28;0.90;;;;;;;;;;6203907;23;20449;-79
2023/01/19 07:30:44;;;;;;;12.45;1.38;;;;;;;;;;6202606;23;20023;-79
2023/01/19 07:33:11;;;;;;;15.52;2.25;;;;;;;;;;6201564;23;20370;-79
2023/01/19 07:35:37;;;;;;;14.18;2.25;;;;;;;;;;6202269;23;20043;-79
2023/01/19 07:38:04;;;;;;;14.38;2.70;;;;;;;;;;6202208;23;20016;-79
2023/01/19 07:40:30;;;;;;;19.98;2.22;;;;;;;;;;6176781;23;20020;-80
2023/01/19 07:42:56;;;;;;;12.07;2.20;;;;;;;;;;6201469;23;20027;-79
2023/01/19 07:45:22;;;;;;;20.90;2.35;;;;;;;;;;6201274;23;20047;-79
2023/01/19 07:47:48;;;;;;;17.10;1.35;;;;;;;;;;6200786;23;20078;-79
2023/01/19 07:50:15;;;;;;;14.90;2.15;;;;;;;;;;6201474;23;20030;-79
2023/01/19 07:52:41;;;;;;;10.38;2.10;;;;;;;;;;6181064;23;20170;-78
2023/01/19 07:55:08;;;;;;;11.23;1.95;;;;;;;;;;6203827;23;20020;-79
2023/01/19 07:57:35;;;;;;;7.88;2.13;;;;;;;;;;6207348;23;20027;-79
2023/01/19 08:00:02;;;;;;;12.23;1.63;;;;;;;;;;6179453;23;20028;-79
2023/01/19 08:02:29;;;;;;;11.07;2.65;;;;;;;;;;6180438;23;20035;-79
2023/01/19 08:04:55;;;;;;;12.40;1.63;;;;;;;;;;6201858;23;20016;-79
2023/01/19 08:07:21;;;;;;;10.10;1.63;;;;;;;;;;6202895;23;20024;-78
2023/01/19 08:09:47;;;;;;;10.90;1.83;;;;;;;;;;6178097;23;20031;-80
2023/01/19 08:12:13;;;;;;;10.35;1.63;;;;;;;;;;6201969;23;20531;-79
2023/01/19 08:14:39;;;;;;;11.48;1.13;;;;;;;;;;6204800;23;20086;-79
2023/01/19 08:17:05;;;;;;;16.77;1.63;;;;;;;;;;6207005;23;20341;-79
2023/01/19 08:19:31;;;;;;;15.48;2.35;;;;;;;;;;6180098;23;20393;-79
2023/01/19 08:21:58;;;;;;;16.63;2.33;;;;;;;;;;6180027;23;20016;-79
2023/01/19 08:24:27;;;;;;;15.32;2.00;;;;;;;;;;6204586;23;20020;-80
2023/01/19 08:26:59;;;;;;;20.80;2.17;;;;;;;;;;6205097;23;20019;-80
2023/01/19 08:29:25;;;;;;;16.63;3.50;;;;;;;;;;6204725;23;20039;-80
2023/01/19 08:31:54;;;;;;;20.10;2.90;;;;;;;;;;6203557;23;20495;-79
2023/01/19 08:34:20;;;;;;;23.75;3.75;;;;;;;;;;6202520;23;20518;-79
2023/01/19 08:36:46;;;;;;;15.65;1.90;;;;;;;;;;6203130;23;20032;-78
2023/01/19 08:39:12;;;;;;;18.70;3.33;;;;;;;;;;6203469;23;20348;-79
2023/01/19 08:41:38;;;;;;;17.40;1.60;;;;;;;;;;6230707;23;20024;-79
2023/01/19 08:44:04;;;;;;;17.40;2.17;;;;;;;;;;6203229;23;20016;-80
2023/01/19 08:46:30;;;;;;;9.07;1.85;;;;;;;;;;6206158;23;20090;-80
2023/01/19 08:48:57;;;;;;;12.57;1.38;;;;;;;;;;6179727;23;20450;-80
2023/01/19 08:51:23;;;;;;;8.18;1.50;;;;;;;;;;6230952;23;20089;-81
2023/01/19 08:53:49;;;;;;;8.45;1.58;;;;;;;;;;6179440;23;20024;-81
2023/01/19 08:56:15;;;;;;;5.43;1.05;;;;;;;;;;6203924;23;20047;-81
2023/01/19 08:58:42;;;;;;;4.40;0.90;;;;;;;;;;6204203;23;20083;-80
2023/01/19 09:01:09;;;;;;;8.73;1.00;;;;;;;;;;6177611;23;20020;-80
2023/01/19 09:03:35;;;;;;;13.63;1.50;;;;;;;;;;6203679;23;20099;-80
2023/01/19 09:06:02;;;;;;;7.93;1.50;;;;;;;;;;6203412;23;20455;-80
2023/01/19 09:08:28;;;;;;;10.75;2.58;;;;;;;;;;6176897;23;20465;-80
2023/01/19 09:10:54;;;;;;;10.82;1.73;;;;;;;;;;6175482;23;20058;-80
2023/01/19 09:13:20;;;;;;;8.10;1.50;;;;;;;;;;6202322;23;20055;-79
2023/01/19 09:15:46;;;;;;;13.25;1.55;;;;;;;;;;6200573;23;20451;-80
2023/01/19 09:18:13;;;;;;;8.00;1.15;;;;;;;;;;6198025;23;20096;-80
2023/01/19 09:20:41;;;;;;;7.95;1.20;;;;;;;;;;6197516;23;20023;-80
2023/01/19 09:23:09;;;;;;;15.15;1.45;;;;;;;;;;6148557;23;20114;-81
2023/01/19 09:25:36;;;;;;;12.80;1.45;;;;;;;;;;6175501;23;20051;-80
2023/01/19 09:28:02;;;;;;;15.73;1.77;;;;;;;;;;6199400;23;20052;-78
2023/01/19 09:30:28;;;;;;;13.73;2.17;;;;;;;;;;6174642;23;20021;-79
2023/01/19 09:32:54;;;;;;;10.30;1.77;;;;;;;;;;6199791;23;20074;-82
2023/01/19 09:35:20;;;;;;;15.85;1.75;;;;;;;;;;6199702;23;20044;-81
2023/01/19 09:37:47;;;;;;;18.55;1.20;;;;;;;;;;6196899;23;20062;-81
2023/01/19 09:40:13;;;;;;;11.45;1.75;;;;;;;;;;6176456;23;20070;-81
2023/01/19 09:42:44;;;;;;;9.20;1.67;;;;;;;;;;6199821;23;20021;-81
2023/01/19 09:45:34;;;;;;;18.02;2.38;;;;;;;;;;6197275;23;20096;-81
2023/01/19 09:48:01;;;;;;;15.70;2.13;;;;;;;;;;6196512;23;20017;-80
2023/01/19 09:50:31;;;;;;;23.67;3.60;;;;;;;;;;6196911;23;20493;-79
2023/01/19 09:53:03;;;;;;;13.65;2.50;;;;;;;;;;6198493;23;20020;-80
2023/01/19 09:55:30;;;;;;;18.52;1.83;;;;;;;;;;6171156;23;20017;-79
2023/01/19 09:57:56;;;;;;;15.38;2.53;;;;;;;;;;6170138;23;20441;-80
2023/01/19 10:00:23;;;;;;;14.38;2.08;;;;;;;;;;6196067;23;20042;-80
2023/01/19 10:02:58;;;;;;;19.38;2.95;;;;;;;;;;6198912;23;20024;-80
2023/01/19 10:05:30;;;;;;;15.98;2.40;;;;;;;;;;6199762;23;20079;-80
2023/01/19 10:07:56;;;;;;;15.02;2.17;;;;;;;;;;6198276;23;20179;-80
2023/01/19 10:10:30;;;;;;;9.25;2.13;;;;;;;;;;6197456;23;20020;-80
2023/01/19 10:13:15;;;;;;;16.17;2.15;;;;;;;;;;6198005;23;20346;-80
2023/01/19 10:15:45;;;;;;;15.52;1.58;;;;;;;;;;6202737;23;20449;-80
2023/01/19 10:18:29;;;;;;;13.05;1.75;;;;;;;;;;6198744;23;20815;-80
2023/01/19 10:20:55;;;;;;;;;;;;;;;;;;6201440;23;20031;-80
2023/01/19 10:23:28;;;;;;;13.68;2.35;;;;;;;;;;6200178;23;19994;-80
2023/01/19 10:25:54;;;;;;;7.53;1.80;;;;;;;;;;6174237;23;20513;-82
2023/01/19 10:28:22;;;;;;;17.33;2.38;;;;;;;;;;6201154;23;20032;-82
2023/01/19 10:30:49;;;;;;;10.50;1.60;;;;;;;;;;6201722;23;20029;-81
2023/01/19 10:33:15;;;;;;;11.93;1.83;;;;;;;;;;6204720;23;20021;-81
2023/01/19 10:35:43;;;;;;;14.30;1.77;;;;;;;;;;6204241;23;20016;-81
2023/01/19 10:38:11;;;;;;;17.98;2.45;;;;;;;;;;6204074;23;20451;-79
2023/01/19 10:40:37;;;;;;;13.77;2.00;;;;;;;;;;6175628;23;20061;-79
2023/01/19 10:43:22;;;;;;;16.70;2.17;;;;;;;;;;6197705;23;20174;-80
2023/01/19 10:45:50;;;;;;;9.48;1.90;;;;;;;;;;6173490;23;20327;-80
2023/01/19 10:48:16;;;;;;;7.78;1.20;;;;;;;;;;6169698;23;20020;-80
2023/01/19 10:50:42;;;;;;;9.25;1.27;;;;;;;;;;6196209;23;20052;-80
2023/01/19 10:53:19;;;;;;;9.43;2.50;;;;;;;;;;6172988;23;20110;-80
2023/01/19 10:55:45;;;;;;;13.85;1.70;;;;;;;;;;6196418;23;20026;-79
2023/01/19 10:58:26;;;;;;;10.65;1.38;;;;;;;;;;6170596;23;20477;-80
2023/01/19 11:00:52;;;;;;;12.98;2.33;;;;;;;;;;6194444;23;20043;-80
2023/01/19 11:03:27;;;;;;;19.83;1.73;;;;;;;;;;6194951;23;20385;-80
2023/01/19 11:05:53;;;;;;;6.82;1.27;;;;;;;;;;6195577;23;20127;-79
2023/01/19 11:08:27;;;;;;;6.57;1.38;;;;;;;;;;6195909;23;20020;-81
2023/01/19 11:10:53;;;;;;;;;;;;;;;;;;6197768;23;20342;-81
2023/01/19 11:13:19;;;;;;;10.50;2.17;;;;;;;;;;6198703;23;20377;-80
2023/01/19 11:15:56;;;;;;;7.95;1.23;;;;;;;;;;6199080;23;20048;-81
2023/01/19 11:18:33;;;;;;;10.32;2.28;;;;;;;;;;6199869;23;20051;-80
2023/01/19 11:21:01;;;;;;;11.90;1.85;;;;;;;;;;6175132;23;20016;-80
2023/01/19 11:23:30;;;;;;;4.18;1.00;;;;;;;;;;6199612;23;20043;-80
2023/01/19 11:26:00;;;;;;;20.40;2.28;;;;;;;;;;6199012;23;20104;-80
2023/01/19 11:28:28;;;;;;;7.65;1.42;;;;;;;;;;6200479;23;20055;-80
2023/01/19 11:30:56;;;;;;;11.63;1.92;;;;;;;;;;6178856;23;20016;-80
2023/01/19 11:33:41;;;;;;;7.13;1.15;;;;;;;;;;6204108;23;20013;-81
2023/01/19 11:36:19;;;;;;;8.50;1.55;;;;;;;;;;6177906;23;20102;-81
2023/01/19 11:38:49;;;;;;;8.73;1.65;;;;;;;;;;6203093;23;20020;-81
2023/01/19 11:41:17;;;;;;;8.77;1.50;;;;;;;;;;6202380;23;20016;-81
2023/01/19 11:43:43;;;;;;;5.65;1.17;;;;;;;;;;6175380;23;20017;-81
2023/01/19 11:46:12;;;;;;;9.57;2.70;;;;;;;;;;6199523;23;20017;-81
2023/01/19 11:48:40;;;;;;;8.95;1.50;;;;;;;;;;6199453;23;20016;-81
2023/01/19 11:51:11;;;;;;;6.35;1.42;;;;;;;;;;6172105;23;20347;-81
2023/01/19 11:53:37;;;;;;;7.85;1.20;;;;;;;;;;6199275;23;20019;-81
2023/01/19 11:56:06;;;;;;;9.75;1.25;;;;;;;;;;6197302;23;20084;-81
2023/01/19 11:58:36;;;;;;;5.82;1.30;;;;;;;;;;6171273;23;20042;-81
2023/01/19 12:01:05;;;;;;;11.15;1.63;;;;;;;;;;6199740;23;20012;-81
2023/01/19 12:03:46;;;;;;;12.48;1.65;;;;;;;;;;6198849;23;20575;-80
2023/01/19 12:06:14;;;;;;;8.95;1.60;;;;;;;;;;6199949;23;20016;-80
2023/01/19 12:08:43;;;;;;;8.90;1.10;;;;;;;;;;6172969;23;20086;-80
2023/01/19 12:11:12;;;;;;;8.00;1.35;;;;;;;;;;6197915;23;20487;-81
2023/01/19 12:13:39;;;;;;;8.23;1.42;;;;;;;;;;6197432;23;20482;-80
2023/01/19 12:16:26;;;;;;;12.15;1.45;;;;;;;;;;6177649;23;20360;-80
2023/01/19 12:18:55;;;;;;;10.80;1.60;;;;;;;;;;6197385;23;20043;-80
2023/01/19 12:21:21;;;;;;;11.73;1.38;;;;;;;;;;6203668;23;20112;-79
2023/01/19 12:23:53;;;;;;;10.68;1.38;;;;;;;;;;6201993;23;20412;-78
2023/01/19 12:26:27;;;;;;;8.60;1.45;;;;;;;;;;6202243;23;20020;-80
2023/01/19 12:28:56;;;;;;;12.73;1.40;;;;;;;;;;6201339;23;20020;-80
2023/01/19 12:31:22;;;;;;;11.50;1.88;;;;;;;;;;6175166;23;20120;-81
2023/01/19 12:33:49;;;;;;;8.73;1.20;;;;;;;;;;6197856;23;20028;-80
2023/01/19 12:36:39;;;;;;;14.82;2.15;;;;;;;;;;6173696;23;20409;-81
2023/01/19 12:39:19;;;;;;;6.22;0.98;;;;;;;;;;6198979;23;20016;-80
2023/01/19 12:41:46;;;;;;;14.25;1.52;;;;;;;;;;6199725;23;20048;-80
2023/01/19 12:44:15;;;;;;;13.10;1.33;;;;;;;;;;6201129;23;20022;-80
2023/01/19 12:46:49;;;;;;;6.43;1.13;;;;;;;;;;6209628;23;20099;-80
2023/01/19 12:49:15;;;;;;;7.00;1.73;;;;;;;;;;6177159;23;20016;-80
2023/01/19 12:51:41;;;;;;;6.03;1.17;;;;;;;;;;6202105;23;20016;-81
2023/01/19 12:54:15;;;;;;;6.88;1.30;;;;;;;;;;6175409;23;20012;-79
2023/01/19 12:56:42;;;;;;;8.93;1.33;;;;;;;;;;6207732;23;20020;-79
2023/01/19 12:59:21;;;;;;;5.65;1.23;;;;;;;;;;6210666;23;20016;-78
2023/01/19 13:02:07;;;;;;;4.47;0.95;;;;;;;;;;6213686;23;20076;-79
2023/01/19 13:04:33;;;;;;;3.58;0.82;;;;;;;;;;6214778;23;20345;-79
2023/01/19 13:07:09;;;;;;;3.92;1.02;;;;;;;;;;6218197;23;20307;-78
2023/01/19 13:09:36;;;;;;;5.10;0.88;;;;;;;;;;6217665;23;20012;-79
2023/01/19 13:12:15;;;;;;;6.30;0.80;;;;;;;;;;6217038;23;20021;-80
2023/01/19 13:14:42;;;;;;;9.65;1.17;;;;;;;;;;6185571;23;20020;-80
2023/01/19 13:17:29;;;;;;;4.88;0.88;;;;;;;;;;6164762;23;20032;-80
2023/01/19 13:20:01;;;;;;;6.88;1.15;;;;;;;;;;6217702;23;20047;-80
2023/01/19 13:22:48;;;;;;;4.82;0.90;;;;;;;;;;6218936;23;20020;-80
2023/01/19 13:25:21;;;;;;;6.53;1.08;;;;;;;;;;6216932;23;20092;-80
2023/01/19 13:27:47;;;;;;;5.23;2.13;;;;;;;;;;6205456;23;20075;-80
2023/01/19 13:30:18;;;;;;;6.53;0.98;;;;;;;;;;6187232;23;20695;-80
2023/01/19 13:32:44;;;;;;;3.25;0.90;;;;;;;;;;6186860;23;20031;-79
2023/01/19 13:35:14;;;;;;;4.47;0.82;;;;;;;;;;6203706;23;20043;-80
2023/01/19 13:37:42;;;;;;;3.83;0.70;;;;;;;;;;6223138;23;20055;-80
2023/01/19 13:40:15;;;;;;;9.65;1.00;;;;;;;;;;6193359;23;20587;-78
2023/01/19 13:42:42;;;;;;;5.85;1.13;;;;;;;;;;6205392;23;20024;-79
2023/01/19 13:45:26;;;;;;;12.55;1.10;;;;;;;;;;6201961;23;20370;-79
2023/01/19 13:47:53;;;;;;;6.78;0.95;;;;;;;;;;6174580;23;20032;-79
2023/01/19 13:50:20;;;;;;;6.50;1.00;;;;;;;;;;6200783;23;20398;-79
2023/01/19 13:52:47;;;;;;;5.18;0.85;;;;;;;;;;6204137;23;20027;-79
2023/01/19 13:55:14;;;;;;;5.03;0.80;;;;;;;;;;6201688;23;20020;-79
2023/01/19 13:57:41;;;;;;;8.55;0.98;;;;;;;;;;6153412;23;20035;-79
2023/01/19 14:00:15;;;;;;;7.15;0.80;;;;;;;;;;6203529;23;20012;-78
2023/01/19 14:02:50;;;;;;;4.78;0.70;;;;;;;;;;6203036;23;20098;-79
2023/01/19 14:05:19;;;;;;;6.40;1.45;;;;;;;;;;6202078;23;20135;-79
2023/01/19 14:07:45;;;;;;;5.57;0.88;;;;;;;;;;6202486;23;20015;-78
2023/01/19 14:10:15;;;;;;;8.13;1.10;;;;;;;;;;6201219;23;20126;-78
2023/01/19 14:12:45;;;;;;;6.10;0.88;;;;;;;;;;6202820;23;20078;-78
2023/01/19 14:15:13;;;;;;;11.13;1.38;;;;;;;;;;6201697;23;20020;-78
2023/01/19 14:17:40;;;;;;;7.78;1.02;;;;;;;;;;6202295;23;20521;-78
2023/01/19 14:20:06;;;;;;;16.45;1.08;;;;;;;;;;6202740;23;20020;-78
2023/01/19 14:22:43;;;;;;;13.48;1.40;;;;;;;;;;6202144;23;20020;-79
2023/01/19 14:25:21;;;;;;;9.43;1.38;;;;;;;;;;6175837;23;20521;-78
2023/01/19 14:27:47;;;;;;;7.13;1.13;;;;;;;;;;6198391;23;20020;-79
2023/01/19 14:30:21;;;;;;;4.20;1.00;;;;;;;;;;6200556;23;20035;-80
2023/01/19 14:32:47;;;;;;;7.28;0.77;;;;;;;;;;6197865;23;20101;-80
2023/01/19 14:35:14;;;;;;;3.00;1.00;;;;;;;;;;6197447;23;20368;-80
2023/01/19 14:37:50;;;;;;;9.25;1.25;;;;;;;;;;6200346;23;20127;-80
2023/01/19 14:40:18;;;;;;;7.85;1.70;;;;;;;;;;6199621;23;20016;-80
2023/01/19 14:42:44;;;;;;;6.05;1.83;;;;;;;;;;6200475;23;20020;-80
2023/01/19 14:45:17;;;;;;;2.33;1.20;;;;;;;;;;6202180;23;20052;-78
2023/01/19 14:47:44;;;;;;;7.13;1.63;;;;;;;;;;6178939;23;20399;-78
2023/01/19 14:50:16;;;;;;;4.38;1.42;;;;;;;;;;6181006;23;20051;-80
2023/01/19 14:52:48;;;;;;;2.97;0.82;;;;;;;;;;6205178;23;20024;-80
2023/01/19 14:55:23;;;;;;;3.25;0.52;;;;;;;;;;6205593;23;20027;-80
2023/01/19 14:57:49;;;;;;;2.17;0.80;;;;;;;;;;6177062;23;20118;-80
2023/01/19 15:00:19;;;;;;;3.00;0.75;;;;;;;;;;6197772;23;20016;-80
2023/01/19 15:02:45;;;;;;;4.07;1.55;;;;;;;;;;6192544;23;20024;-79
2023/01/19 15:05:12;;;;;;;2.50;1.20;;;;;;;;;;6194622;23;20228;-79
2023/01/19 15:07:40;;;;;;;3.83;0.70;;;;;;;;;;6170723;23;20078;-79